sensor_id;sensor_type;location;lat;lon;timestamp;P1;durP1;ratioP1;P2;durP2;ratioP2
6723;SDS011;3399;52.530;13.304;2022-11-25T00:03:35;18.77;;;14.70;;
6723;SDS011;3399;52.530;13.304;2022-11-25T00:06:11;22.33;;;16.30;;
6723;SDS011;3399;52.530;13.304;2022-11-25T00:08:43;22.93;;;16.80;;
6723;SDS011;3399;52.530;13.304;2022-11-25T00:11:09;21.57;;;15.20;;
6723;SDS011;3399;52.530;13.304;2022-11-25T00:13:36;20.13;;;14.73;;
6723;SDS011;3399;52.530;13.304;2022-11-25T00:16:03;18.63;;;13.87;;
6723;SDS011;3399;52.530;13.304;2022-11-25T00:18:29;18.17;;;14.10;;
6723;SDS011;3399;52.530;13.304;2022-11-25T00:20:55;18.93;;;13.80;;
6723;SDS011;3399;52.530;13.304;2022-11-25T00:23:21;20.20;;;14.37;;
6723;SDS011;3399;52.530;13.304;2022-11-25T00:25:47;20.23;;;14.00;;
6723;SDS011;3399;52.530;13.304;2022-11-25T00:28:13;19.90;;;14.77;;
6723;SDS011;3399;52.530;13.304;2022-11-25T00:30:38;19.07;;;14.27;;
6723;SDS011;3399;52.530;13.304;2022-11-25T00:33:03;16.77;;;12.93;;
6723;SDS011;3399;52.530;13.304;2022-11-25T00:35:29;19.80;;;13.70;;
6723;SDS011;3399;52.530;13.304;2022-11-25T00:37:54;15.67;;;12.67;;
6723;SDS011;3399;52.530;13.304;2022-11-25T00:40:20;17.33;;;13.73;;
6723;SDS011;3399;52.530;13.304;2022-11-25T00:42:45;17.23;;;13.23;;
6723;SDS011;3399;52.530;13.304;2022-11-25T00:45:30;20.83;;;13.37;;
6723;SDS011;3399;52.530;13.304;2022-11-25T00:47:55;21.03;;;15.47;;
6723;SDS011;3399;52.530;13.304;2022-11-25T00:50:21;18.30;;;12.90;;
6723;SDS011;3399;52.530;13.304;2022-11-25T00:52:46;18.17;;;14.77;;
6723;SDS011;3399;52.530;13.304;2022-11-25T00:55:11;17.37;;;12.47;;
6723;SDS011;3399;52.530;13.304;2022-11-25T00:57:37;16.90;;;13.03;;
6723;SDS011;3399;52.530;13.304;2022-11-25T01:00:03;15.60;;;12.70;;
6723;SDS011;3399;52.530;13.304;2022-11-25T01:02:29;17.03;;;13.27;;
6723;SDS011;3399;52.530;13.304;2022-11-25T01:04:55;18.83;;;12.73;;
6723;SDS011;3399;52.530;13.304;2022-11-25T01:07:20;14.27;;;11.87;;
6723;SDS011;3399;52.530;13.304;2022-11-25T01:09:46;20.10;;;14.47;;
6723;SDS011;3399;52.530;13.304;2022-11-25T01:12:12;16.07;;;11.53;;
6723;SDS011;3399;52.530;13.304;2022-11-25T01:14:38;18.93;;;12.23;;
6723;SDS011;3399;52.530;13.304;2022-11-25T01:17:03;15.87;;;11.77;;
6723;SDS011;3399;52.530;13.304;2022-11-25T01:19:29;18.03;;;13.77;;
6723;SDS011;3399;52.530;13.304;2022-11-25T01:21:54;16.73;;;13.60;;
6723;SDS011;3399;52.530;13.304;2022-11-25T01:24:20;13.67;;;12.27;;
6723;SDS011;3399;52.530;13.304;2022-11-25T01:26:45;13.53;;;11.73;;
6723;SDS011;3399;52.530;13.304;2022-11-25T01:29:12;18.50;;;14.07;;
6723;SDS011;3399;52.530;13.304;2022-11-25T01:31:39;14.83;;;12.53;;
6723;SDS011;3399;52.530;13.304;2022-11-25T01:34:07;14.10;;;12.00;;
6723;SDS011;3399;52.530;13.304;2022-11-25T01:36:40;18.03;;;12.83;;
6723;SDS011;3399;52.530;13.304;2022-11-25T01:39:06;16.37;;;13.27;;
6723;SDS011;3399;52.530;13.304;2022-11-25T01:41:32;15.93;;;13.43;;
6723;SDS011;3399;52.530;13.304;2022-11-25T01:44:03;16.30;;;13.00;;
6723;SDS011;3399;52.530;13.304;2022-11-25T01:46:37;19.70;;;14.83;;
6723;SDS011;3399;52.530;13.304;2022-11-25T01:49:16;19.90;;;14.63;;
6723;SDS011;3399;52.530;13.304;2022-11-25T01:51:50;17.43;;;13.73;;
6723;SDS011;3399;52.530;13.304;2022-11-25T01:54:20;16.20;;;14.07;;
6723;SDS011;3399;52.530;13.304;2022-11-25T01:56:48;20.43;;;14.67;;
6723;SDS011;3399;52.530;13.304;2022-11-25T01:59:26;19.17;;;15.47;;
6723;SDS011;3399;52.530;13.304;2022-11-25T02:01:53;24.43;;;16.27;;
6723;SDS011;3399;52.530;13.304;2022-11-25T02:04:20;16.73;;;14.10;;
6723;SDS011;3399;52.530;13.304;2022-11-25T02:06:54;16.80;;;15.00;;
6723;SDS011;3399;52.530;13.304;2022-11-25T02:09:23;16.60;;;14.40;;
6723;SDS011;3399;52.530;13.304;2022-11-25T02:11:51;21.40;;;16.60;;
6723;SDS011;3399;52.530;13.304;2022-11-25T02:14:16;21.27;;;16.57;;
6723;SDS011;3399;52.530;13.304;2022-11-25T02:16:45;24.43;;;18.03;;
6723;SDS011;3399;52.530;13.304;2022-11-25T02:19:21;28.07;;;17.93;;
6723;SDS011;3399;52.530;13.304;2022-11-25T02:21:51;24.20;;;18.70;;
6723;SDS011;3399;52.530;13.304;2022-11-25T02:24:29;34.07;;;24.87;;
6723;SDS011;3399;52.530;13.304;2022-11-25T02:27:03;39.83;;;27.30;;
6723;SDS011;3399;52.530;13.304;2022-11-25T02:29:28;36.40;;;28.43;;
6723;SDS011;3399;52.530;13.304;2022-11-25T02:31:54;36.70;;;27.43;;
6723;SDS011;3399;52.530;13.304;2022-11-25T02:34:19;39.60;;;28.17;;
6723;SDS011;3399;52.530;13.304;2022-11-25T02:36:45;34.13;;;24.53;;
6723;SDS011;3399;52.530;13.304;2022-11-25T02:39:10;31.67;;;23.93;;
6723;SDS011;3399;52.530;13.304;2022-11-25T02:41:38;35.77;;;23.00;;
6723;SDS011;3399;52.530;13.304;2022-11-25T02:44:07;33.43;;;23.20;;
6723;SDS011;3399;52.530;13.304;2022-11-25T02:46:33;36.83;;;23.17;;
6723;SDS011;3399;52.530;13.304;2022-11-25T02:48:58;39.03;;;23.37;;
6723;SDS011;3399;52.530;13.304;2022-11-25T02:51:25;30.10;;;20.93;;
6723;SDS011;3399;52.530;13.304;2022-11-25T02:53:52;28.73;;;20.33;;
6723;SDS011;3399;52.530;13.304;2022-11-25T02:56:19;30.83;;;21.23;;
6723;SDS011;3399;52.530;13.304;2022-11-25T02:58:46;35.00;;;21.30;;
6723;SDS011;3399;52.530;13.304;2022-11-25T03:01:11;35.93;;;21.97;;
6723;SDS011;3399;52.530;13.304;2022-11-25T03:03:37;31.93;;;20.60;;
6723;SDS011;3399;52.530;13.304;2022-11-25T03:06:03;32.87;;;21.67;;
6723;SDS011;3399;52.530;13.304;2022-11-25T03:08:28;32.50;;;21.97;;
6723;SDS011;3399;52.530;13.304;2022-11-25T03:10:54;32.80;;;21.10;;
6723;SDS011;3399;52.530;13.304;2022-11-25T03:13:20;29.70;;;19.27;;
6723;SDS011;3399;52.530;13.304;2022-11-25T03:15:45;32.47;;;19.93;;
6723;SDS011;3399;52.530;13.304;2022-11-25T03:18:11;25.57;;;17.73;;
6723;SDS011;3399;52.530;13.304;2022-11-25T03:20:36;25.20;;;17.67;;
6723;SDS011;3399;52.530;13.304;2022-11-25T03:23:02;23.30;;;16.43;;
6723;SDS011;3399;52.530;13.304;2022-11-25T03:25:29;23.63;;;16.77;;
6723;SDS011;3399;52.530;13.304;2022-11-25T03:27:55;23.53;;;16.33;;
6723;SDS011;3399;52.530;13.304;2022-11-25T03:30:22;23.70;;;14.97;;
6723;SDS011;3399;52.530;13.304;2022-11-25T03:32:48;24.20;;;17.13;;
6723;SDS011;3399;52.530;13.304;2022-11-25T03:35:14;23.00;;;17.40;;
6723;SDS011;3399;52.530;13.304;2022-11-25T03:37:40;19.83;;;15.77;;
6723;SDS011;3399;52.530;13.304;2022-11-25T03:40:06;22.57;;;16.10;;
6723;SDS011;3399;52.530;13.304;2022-11-25T03:42:33;21.77;;;15.50;;
6723;SDS011;3399;52.530;13.304;2022-11-25T03:44:59;17.97;;;14.23;;
6723;SDS011;3399;52.530;13.304;2022-11-25T03:47:24;23.37;;;15.57;;
6723;SDS011;3399;52.530;13.304;2022-11-25T03:49:50;19.20;;;14.57;;
6723;SDS011;3399;52.530;13.304;2022-11-25T03:52:16;18.57;;;15.57;;
6723;SDS011;3399;52.530;13.304;2022-11-25T03:54:41;22.03;;;16.77;;
6723;SDS011;3399;52.530;13.304;2022-11-25T03:57:07;21.10;;;15.10;;
6723;SDS011;3399;52.530;13.304;2022-11-25T03:59:32;19.53;;;14.80;;
6723;SDS011;3399;52.530;13.304;2022-11-25T04:01:58;20.63;;;15.20;;
6723;SDS011;3399;52.530;13.304;2022-11-25T04:04:23;21.10;;;15.50;;
6723;SDS011;3399;52.530;13.304;2022-11-25T04:06:49;16.77;;;13.30;;
6723;SDS011;3399;52.530;13.304;2022-11-25T04:09:14;22.37;;;14.30;;
6723;SDS011;3399;52.530;13.304;2022-11-25T04:11:40;17.97;;;14.57;;
6723;SDS011;3399;52.530;13.304;2022-11-25T04:14:24;20.73;;;13.57;;
6723;SDS011;3399;52.530;13.304;2022-11-25T04:16:50;16.97;;;14.23;;
6723;SDS011;3399;52.530;13.304;2022-11-25T04:19:15;21.80;;;14.50;;
6723;SDS011;3399;52.530;13.304;2022-11-25T04:21:41;18.63;;;14.20;;
6723;SDS011;3399;52.530;13.304;2022-11-25T04:24:06;21.67;;;14.10;;
6723;SDS011;3399;52.530;13.304;2022-11-25T04:26:32;17.40;;;13.77;;
6723;SDS011;3399;52.530;13.304;2022-11-25T04:28:57;17.63;;;13.97;;
6723;SDS011;3399;52.530;13.304;2022-11-25T04:31:23;16.73;;;12.93;;
6723;SDS011;3399;52.530;13.304;2022-11-25T04:33:48;20.13;;;13.30;;
6723;SDS011;3399;52.530;13.304;2022-11-25T04:36:14;15.57;;;13.97;;
6723;SDS011;3399;52.530;13.304;2022-11-25T04:38:39;15.93;;;14.23;;
6723;SDS011;3399;52.530;13.304;2022-11-25T04:41:05;17.17;;;13.23;;
6723;SDS011;3399;52.530;13.304;2022-11-25T04:43:30;17.73;;;14.03;;
6723;SDS011;3399;52.530;13.304;2022-11-25T04:45:56;17.47;;;14.37;;
6723;SDS011;3399;52.530;13.304;2022-11-25T04:48:22;16.60;;;13.73;;
6723;SDS011;3399;52.530;13.304;2022-11-25T04:50:48;17.23;;;14.60;;
6723;SDS011;3399;52.530;13.304;2022-11-25T04:53:14;15.20;;;13.60;;
6723;SDS011;3399;52.530;13.304;2022-11-25T04:55:39;17.50;;;14.07;;
6723;SDS011;3399;52.530;13.304;2022-11-25T04:58:05;28.67;;;14.27;;
6723;SDS011;3399;52.530;13.304;2022-11-25T05:00:30;19.07;;;13.87;;
6723;SDS011;3399;52.530;13.304;2022-11-25T05:02:56;15.80;;;13.63;;
6723;SDS011;3399;52.530;13.304;2022-11-25T05:05:21;18.67;;;14.10;;
6723;SDS011;3399;52.530;13.304;2022-11-25T05:07:47;19.33;;;15.03;;
6723;SDS011;3399;52.530;13.304;2022-11-25T05:10:13;18.60;;;14.17;;
6723;SDS011;3399;52.530;13.304;2022-11-25T05:12:39;19.40;;;14.13;;
6723;SDS011;3399;52.530;13.304;2022-11-25T05:15:05;20.57;;;14.57;;
6723;SDS011;3399;52.530;13.304;2022-11-25T05:17:32;20.77;;;15.13;;
6723;SDS011;3399;52.530;13.304;2022-11-25T05:19:57;17.80;;;14.73;;
6723;SDS011;3399;52.530;13.304;2022-11-25T05:22:24;20.03;;;13.90;;
6723;SDS011;3399;52.530;13.304;2022-11-25T05:24:51;21.23;;;13.83;;
6723;SDS011;3399;52.530;13.304;2022-11-25T05:27:17;15.03;;;13.13;;
6723;SDS011;3399;52.530;13.304;2022-11-25T05:29:44;19.60;;;14.77;;
6723;SDS011;3399;52.530;13.304;2022-11-25T05:32:09;22.27;;;15.83;;
6723;SDS011;3399;52.530;13.304;2022-11-25T05:34:35;24.33;;;16.90;;
6723;SDS011;3399;52.530;13.304;2022-11-25T05:37:01;23.47;;;18.00;;
6723;SDS011;3399;52.530;13.304;2022-11-25T05:39:28;22.97;;;15.37;;
6723;SDS011;3399;52.530;13.304;2022-11-25T05:41:54;25.30;;;16.73;;
6723;SDS011;3399;52.530;13.304;2022-11-25T05:44:20;24.13;;;17.13;;
6723;SDS011;3399;52.530;13.304;2022-11-25T05:46:45;26.63;;;16.83;;
6723;SDS011;3399;52.530;13.304;2022-11-25T05:49:12;23.37;;;17.57;;
6723;SDS011;3399;52.530;13.304;2022-11-25T05:51:39;28.00;;;18.67;;
6723;SDS011;3399;52.530;13.304;2022-11-25T05:54:13;24.60;;;16.23;;
6723;SDS011;3399;52.530;13.304;2022-11-25T05:56:39;25.17;;;16.80;;
6723;SDS011;3399;52.530;13.304;2022-11-25T05:59:05;21.03;;;16.00;;
6723;SDS011;3399;52.530;13.304;2022-11-25T06:01:31;25.40;;;17.23;;
6723;SDS011;3399;52.530;13.304;2022-11-25T06:04:00;22.23;;;17.07;;
6723;SDS011;3399;52.530;13.304;2022-11-25T06:06:26;25.60;;;16.70;;
6723;SDS011;3399;52.530;13.304;2022-11-25T06:08:52;25.40;;;16.40;;
6723;SDS011;3399;52.530;13.304;2022-11-25T06:11:17;26.30;;;16.33;;
6723;SDS011;3399;52.530;13.304;2022-11-25T06:13:43;23.17;;;17.37;;
6723;SDS011;3399;52.530;13.304;2022-11-25T06:16:09;24.40;;;17.10;;
6723;SDS011;3399;52.530;13.304;2022-11-25T06:18:37;23.97;;;17.33;;
6723;SDS011;3399;52.530;13.304;2022-11-25T06:21:04;25.33;;;16.50;;
6723;SDS011;3399;52.530;13.304;2022-11-25T06:23:30;24.77;;;17.80;;
6723;SDS011;3399;52.530;13.304;2022-11-25T06:26:03;23.87;;;16.83;;
6723;SDS011;3399;52.530;13.304;2022-11-25T06:28:33;25.73;;;17.17;;
6723;SDS011;3399;52.530;13.304;2022-11-25T06:31:06;31.73;;;18.67;;
6723;SDS011;3399;52.530;13.304;2022-11-25T06:33:33;22.63;;;17.47;;
6723;SDS011;3399;52.530;13.304;2022-11-25T06:36:00;25.07;;;17.63;;
6723;SDS011;3399;52.530;13.304;2022-11-25T06:38:27;24.67;;;17.90;;
6723;SDS011;3399;52.530;13.304;2022-11-25T06:40:52;28.50;;;19.23;;
6723;SDS011;3399;52.530;13.304;2022-11-25T06:43:18;25.57;;;18.77;;
6723;SDS011;3399;52.530;13.304;2022-11-25T06:45:43;24.63;;;18.03;;
6723;SDS011;3399;52.530;13.304;2022-11-25T06:48:09;25.33;;;18.30;;
6723;SDS011;3399;52.530;13.304;2022-11-25T06:50:34;30.70;;;18.60;;
6723;SDS011;3399;52.530;13.304;2022-11-25T06:53:00;35.17;;;19.87;;
6723;SDS011;3399;52.530;13.304;2022-11-25T06:55:26;30.93;;;19.70;;
6723;SDS011;3399;52.530;13.304;2022-11-25T06:57:51;23.90;;;18.57;;
6723;SDS011;3399;52.530;13.304;2022-11-25T07:00:17;27.83;;;18.63;;
6723;SDS011;3399;52.530;13.304;2022-11-25T07:02:43;26.07;;;17.73;;
6723;SDS011;3399;52.530;13.304;2022-11-25T07:05:08;28.33;;;18.83;;
6723;SDS011;3399;52.530;13.304;2022-11-25T07:07:34;35.50;;;19.60;;
6723;SDS011;3399;52.530;13.304;2022-11-25T07:10:00;25.47;;;19.57;;
6723;SDS011;3399;52.530;13.304;2022-11-25T07:12:25;27.77;;;20.57;;
6723;SDS011;3399;52.530;13.304;2022-11-25T07:14:50;27.67;;;19.03;;
6723;SDS011;3399;52.530;13.304;2022-11-25T07:17:16;30.87;;;19.80;;
6723;SDS011;3399;52.530;13.304;2022-11-25T07:19:41;28.37;;;20.10;;
6723;SDS011;3399;52.530;13.304;2022-11-25T07:22:09;25.03;;;17.70;;
6723;SDS011;3399;52.530;13.304;2022-11-25T07:24:34;30.47;;;19.53;;
6723;SDS011;3399;52.530;13.304;2022-11-25T07:27:00;31.73;;;21.57;;
6723;SDS011;3399;52.530;13.304;2022-11-25T07:29:25;26.80;;;19.40;;
6723;SDS011;3399;52.530;13.304;2022-11-25T07:31:51;32.23;;;19.23;;
6723;SDS011;3399;52.530;13.304;2022-11-25T07:34:18;32.00;;;20.00;;
6723;SDS011;3399;52.530;13.304;2022-11-25T07:36:45;26.97;;;17.63;;
6723;SDS011;3399;52.530;13.304;2022-11-25T07:39:14;26.13;;;19.43;;
6723;SDS011;3399;52.530;13.304;2022-11-25T07:41:42;27.77;;;19.00;;
6723;SDS011;3399;52.530;13.304;2022-11-25T07:44:09;31.57;;;18.03;;
6723;SDS011;3399;52.530;13.304;2022-11-25T07:46:38;24.50;;;18.80;;
6723;SDS011;3399;52.530;13.304;2022-11-25T07:49:06;25.30;;;17.97;;
6723;SDS011;3399;52.530;13.304;2022-11-25T07:51:36;25.57;;;18.07;;
6723;SDS011;3399;52.530;13.304;2022-11-25T07:54:12;27.43;;;17.90;;
6723;SDS011;3399;52.530;13.304;2022-11-25T07:56:39;27.27;;;18.57;;
6723;SDS011;3399;52.530;13.304;2022-11-25T07:59:06;24.83;;;17.90;;
6723;SDS011;3399;52.530;13.304;2022-11-25T08:01:34;29.83;;;18.33;;
6723;SDS011;3399;52.530;13.304;2022-11-25T08:04:00;23.33;;;18.40;;
6723;SDS011;3399;52.530;13.304;2022-11-25T08:06:26;27.93;;;16.63;;
6723;SDS011;3399;52.530;13.304;2022-11-25T08:08:53;22.47;;;16.90;;
6723;SDS011;3399;52.530;13.304;2022-11-25T08:11:29;20.10;;;15.73;;
6723;SDS011;3399;52.530;13.304;2022-11-25T08:13:55;22.63;;;17.07;;
6723;SDS011;3399;52.530;13.304;2022-11-25T08:16:23;30.07;;;16.83;;
6723;SDS011;3399;52.530;13.304;2022-11-25T08:18:51;28.03;;;17.37;;
6723;SDS011;3399;52.530;13.304;2022-11-25T08:21:18;21.50;;;16.20;;
6723;SDS011;3399;52.530;13.304;2022-11-25T08:23:44;23.07;;;16.27;;
6723;SDS011;3399;52.530;13.304;2022-11-25T08:26:15;24.17;;;15.93;;
6723;SDS011;3399;52.530;13.304;2022-11-25T08:28:42;24.90;;;15.03;;
6723;SDS011;3399;52.530;13.304;2022-11-25T08:31:09;28.97;;;17.47;;
6723;SDS011;3399;52.530;13.304;2022-11-25T08:33:37;24.93;;;16.47;;
6723;SDS011;3399;52.530;13.304;2022-11-25T08:36:04;19.40;;;15.57;;
6723;SDS011;3399;52.530;13.304;2022-11-25T08:38:30;19.27;;;14.70;;
6723;SDS011;3399;52.530;13.304;2022-11-25T08:40:56;19.57;;;15.60;;
6723;SDS011;3399;52.530;13.304;2022-11-25T08:43:22;23.53;;;16.23;;
6723;SDS011;3399;52.530;13.304;2022-11-25T08:45:48;19.90;;;13.83;;
6723;SDS011;3399;52.530;13.304;2022-11-25T08:48:15;18.83;;;15.03;;
6723;SDS011;3399;52.530;13.304;2022-11-25T08:50:46;22.93;;;16.60;;
6723;SDS011;3399;52.530;13.304;2022-11-25T08:53:15;18.03;;;13.13;;
6723;SDS011;3399;52.530;13.304;2022-11-25T08:55:41;22.73;;;15.87;;
6723;SDS011;3399;52.530;13.304;2022-11-25T08:58:07;20.00;;;15.53;;
6723;SDS011;3399;52.530;13.304;2022-11-25T09:00:38;21.97;;;16.00;;
6723;SDS011;3399;52.530;13.304;2022-11-25T09:03:05;21.57;;;15.33;;
6723;SDS011;3399;52.530;13.304;2022-11-25T09:05:30;20.97;;;14.90;;
6723;SDS011;3399;52.530;13.304;2022-11-25T09:08:00;16.97;;;14.33;;
6723;SDS011;3399;52.530;13.304;2022-11-25T09:10:27;22.83;;;15.27;;
6723;SDS011;3399;52.530;13.304;2022-11-25T09:12:53;17.63;;;14.57;;
6723;SDS011;3399;52.530;13.304;2022-11-25T09:15:18;18.60;;;14.53;;
6723;SDS011;3399;52.530;13.304;2022-11-25T09:17:43;14.97;;;12.90;;
6723;SDS011;3399;52.530;13.304;2022-11-25T09:20:09;17.97;;;14.17;;
6723;SDS011;3399;52.530;13.304;2022-11-25T09:22:35;18.83;;;14.33;;
6723;SDS011;3399;52.530;13.304;2022-11-25T09:25:00;19.00;;;15.60;;
6723;SDS011;3399;52.530;13.304;2022-11-25T09:27:26;20.90;;;15.07;;
6723;SDS011;3399;52.530;13.304;2022-11-25T09:29:51;21.03;;;15.60;;
6723;SDS011;3399;52.530;13.304;2022-11-25T09:32:17;16.70;;;13.27;;
6723;SDS011;3399;52.530;13.304;2022-11-25T09:34:42;22.70;;;14.70;;
6723;SDS011;3399;52.530;13.304;2022-11-25T09:37:08;24.57;;;14.50;;
6723;SDS011;3399;52.530;13.304;2022-11-25T09:39:35;21.60;;;14.80;;
6723;SDS011;3399;52.530;13.304;2022-11-25T09:48:35;15.07;;;12.07;;
6723;SDS011;3399;52.530;13.304;2022-11-25T09:53:52;22.00;;;14.00;;
6723;SDS011;3399;52.530;13.304;2022-11-25T09:59:06;19.77;;;14.70;;
6723;SDS011;3399;52.530;13.304;2022-11-25T10:01:57;25.27;;;16.23;;
6723;SDS011;3399;52.530;13.304;2022-11-25T10:04:37;23.77;;;16.63;;
6723;SDS011;3399;52.530;13.304;2022-11-25T10:07:10;17.97;;;13.83;;
6723;SDS011;3399;52.530;13.304;2022-11-25T10:09:43;22.37;;;16.30;;
6723;SDS011;3399;52.530;13.304;2022-11-25T10:12:12;23.27;;;16.30;;
6723;SDS011;3399;52.530;13.304;2022-11-25T10:14:50;18.70;;;15.43;;
6723;SDS011;3399;52.530;13.304;2022-11-25T10:17:35;19.40;;;14.07;;
6723;SDS011;3399;52.530;13.304;2022-11-25T10:23:18;22.17;;;15.77;;
6723;SDS011;3399;52.530;13.304;2022-11-25T10:25:49;19.53;;;15.43;;
6723;SDS011;3399;52.530;13.304;2022-11-25T10:28:20;19.73;;;15.17;;
6723;SDS011;3399;52.530;13.304;2022-11-25T10:36:17;21.97;;;14.47;;
6723;SDS011;3399;52.530;13.304;2022-11-25T10:41:32;21.17;;;15.40;;
6723;SDS011;3399;52.530;13.304;2022-11-25T10:44:02;19.77;;;14.90;;
6723;SDS011;3399;52.530;13.304;2022-11-25T10:46:30;19.87;;;13.47;;
6723;SDS011;3399;52.530;13.304;2022-11-25T10:51:57;16.47;;;12.97;;
6723;SDS011;3399;52.530;13.304;2022-11-25T10:54:24;19.27;;;15.03;;
6723;SDS011;3399;52.530;13.304;2022-11-25T10:56:52;18.63;;;14.20;;
6723;SDS011;3399;52.530;13.304;2022-11-25T10:59:22;21.63;;;15.23;;
6723;SDS011;3399;52.530;13.304;2022-11-25T11:01:52;19.87;;;14.17;;
6723;SDS011;3399;52.530;13.304;2022-11-25T11:07:33;18.83;;;13.33;;
6723;SDS011;3399;52.530;13.304;2022-11-25T11:12:56;21.53;;;15.47;;
6723;SDS011;3399;52.530;13.304;2022-11-25T11:17:52;16.37;;;12.83;;
6723;SDS011;3399;52.530;13.304;2022-11-25T11:20:28;17.73;;;13.50;;
6723;SDS011;3399;52.530;13.304;2022-11-25T11:22:57;20.33;;;13.90;;
6723;SDS011;3399;52.530;13.304;2022-11-25T11:25:31;17.97;;;13.50;;
6723;SDS011;3399;52.530;13.304;2022-11-25T11:27:59;17.27;;;13.63;;
6723;SDS011;3399;52.530;13.304;2022-11-25T11:30:27;18.43;;;14.17;;
6723;SDS011;3399;52.530;13.304;2022-11-25T11:33:01;20.90;;;15.47;;
6723;SDS011;3399;52.530;13.304;2022-11-25T11:36:13;17.40;;;15.40;;
6723;SDS011;3399;52.530;13.304;2022-11-25T11:38:54;22.37;;;14.93;;
6723;SDS011;3399;52.530;13.304;2022-11-25T11:47:00;23.63;;;17.50;;
6723;SDS011;3399;52.530;13.304;2022-11-25T11:49:46;24.03;;;18.53;;
6723;SDS011;3399;52.530;13.304;2022-11-25T11:52:51;22.63;;;18.83;;
6723;SDS011;3399;52.530;13.304;2022-11-25T11:55:34;21.03;;;18.57;;
6723;SDS011;3399;52.530;13.304;2022-11-25T11:58:21;26.33;;;20.17;;
6723;SDS011;3399;52.530;13.304;2022-11-25T12:00:57;23.10;;;18.60;;
6723;SDS011;3399;52.530;13.304;2022-11-25T12:03:25;20.57;;;16.43;;
6723;SDS011;3399;52.530;13.304;2022-11-25T12:05:53;24.17;;;16.47;;
6723;SDS011;3399;52.530;13.304;2022-11-25T12:08:29;20.37;;;16.43;;
6723;SDS011;3399;52.530;13.304;2022-11-25T12:11:02;21.53;;;17.37;;
6723;SDS011;3399;52.530;13.304;2022-11-25T12:13:45;25.73;;;18.33;;
6723;SDS011;3399;52.530;13.304;2022-11-25T12:16:44;21.60;;;17.53;;
6723;SDS011;3399;52.530;13.304;2022-11-25T12:19:24;22.70;;;18.13;;
6723;SDS011;3399;52.530;13.304;2022-11-25T12:22:12;23.00;;;17.07;;
6723;SDS011;3399;52.530;13.304;2022-11-25T12:25:06;23.30;;;17.57;;
6723;SDS011;3399;52.530;13.304;2022-11-25T12:27:38;22.90;;;17.43;;
6723;SDS011;3399;52.530;13.304;2022-11-25T12:30:10;27.80;;;18.20;;
6723;SDS011;3399;52.530;13.304;2022-11-25T12:40:46;24.50;;;18.50;;
6723;SDS011;3399;52.530;13.304;2022-11-25T12:48:36;25.07;;;17.57;;
6723;SDS011;3399;52.530;13.304;2022-11-25T12:51:08;25.53;;;17.60;;
6723;SDS011;3399;52.530;13.304;2022-11-25T12:53:55;21.73;;;16.43;;
6723;SDS011;3399;52.530;13.304;2022-11-25T12:59:58;23.30;;;16.63;;
6723;SDS011;3399;52.530;13.304;2022-11-25T13:08:11;20.73;;;16.17;;
6723;SDS011;3399;52.530;13.304;2022-11-25T13:11:05;23.03;;;16.57;;
6723;SDS011;3399;52.530;13.304;2022-11-25T13:16:31;22.87;;;16.93;;
6723;SDS011;3399;52.530;13.304;2022-11-25T13:18:57;23.30;;;17.83;;
6723;SDS011;3399;52.530;13.304;2022-11-25T13:21:23;24.17;;;17.30;;
6723;SDS011;3399;52.530;13.304;2022-11-25T13:23:50;22.43;;;17.93;;
6723;SDS011;3399;52.530;13.304;2022-11-25T13:26:33;28.43;;;17.90;;
6723;SDS011;3399;52.530;13.304;2022-11-25T13:29:18;25.27;;;17.20;;
6723;SDS011;3399;52.530;13.304;2022-11-25T13:34:48;25.00;;;19.03;;
6723;SDS011;3399;52.530;13.304;2022-11-25T13:42:55;25.77;;;18.70;;
6723;SDS011;3399;52.530;13.304;2022-11-25T13:45:25;23.27;;;17.83;;
6723;SDS011;3399;52.530;13.304;2022-11-25T13:48:11;26.67;;;18.40;;
6723;SDS011;3399;52.530;13.304;2022-11-25T13:50:40;23.40;;;17.57;;
6723;SDS011;3399;52.530;13.304;2022-11-25T13:53:22;24.13;;;19.00;;
6723;SDS011;3399;52.530;13.304;2022-11-25T13:55:52;29.90;;;21.27;;
6723;SDS011;3399;52.530;13.304;2022-11-25T13:59:17;29.47;;;18.37;;
6723;SDS011;3399;52.530;13.304;2022-11-25T14:04:09;30.80;;;21.63;;
6723;SDS011;3399;52.530;13.304;2022-11-25T14:12:18;31.60;;;23.70;;
6723;SDS011;3399;52.530;13.304;2022-11-25T14:15:02;42.00;;;27.40;;
6723;SDS011;3399;52.530;13.304;2022-11-25T14:18:04;35.33;;;26.50;;
6723;SDS011;3399;52.530;13.304;2022-11-25T14:24:28;35.30;;;24.67;;
6723;SDS011;3399;52.530;13.304;2022-11-25T14:26:32;34.93;;;23.70;;
6723;SDS011;3399;52.530;13.304;2022-11-25T14:29:00;37.37;;;24.70;;
6723;SDS011;3399;52.530;13.304;2022-11-25T14:31:44;34.13;;;23.73;;
6723;SDS011;3399;52.530;13.304;2022-11-25T14:34:21;39.43;;;23.67;;
6723;SDS011;3399;52.530;13.304;2022-11-25T14:36:53;35.37;;;24.40;;
6723;SDS011;3399;52.530;13.304;2022-11-25T14:39:48;38.20;;;27.47;;
6723;SDS011;3399;52.530;13.304;2022-11-25T14:42:18;35.70;;;23.63;;
6723;SDS011;3399;52.530;13.304;2022-11-25T14:44:50;38.83;;;24.03;;
6723;SDS011;3399;52.530;13.304;2022-11-25T14:47:23;36.90;;;23.73;;
6723;SDS011;3399;52.530;13.304;2022-11-25T14:49:51;37.90;;;23.97;;
6723;SDS011;3399;52.530;13.304;2022-11-25T14:52:20;38.90;;;23.67;;
6723;SDS011;3399;52.530;13.304;2022-11-25T14:54:48;37.17;;;21.70;;
6723;SDS011;3399;52.530;13.304;2022-11-25T14:57:18;37.73;;;22.37;;
6723;SDS011;3399;52.530;13.304;2022-11-25T14:59:47;38.83;;;22.70;;
6723;SDS011;3399;52.530;13.304;2022-11-25T15:02:35;37.30;;;23.20;;
6723;SDS011;3399;52.530;13.304;2022-11-25T15:05:02;29.43;;;20.53;;
6723;SDS011;3399;52.530;13.304;2022-11-25T15:07:32;38.97;;;22.03;;
6723;SDS011;3399;52.530;13.304;2022-11-25T15:09:58;36.67;;;23.67;;
6723;SDS011;3399;52.530;13.304;2022-11-25T15:12:26;33.93;;;21.17;;
6723;SDS011;3399;52.530;13.304;2022-11-25T15:14:56;34.07;;;21.37;;
6723;SDS011;3399;52.530;13.304;2022-11-25T15:17:28;33.97;;;21.23;;
6723;SDS011;3399;52.530;13.304;2022-11-25T15:19:57;32.93;;;21.20;;
6723;SDS011;3399;52.530;13.304;2022-11-25T15:22:26;33.90;;;21.67;;
6723;SDS011;3399;52.530;13.304;2022-11-25T15:24:52;34.47;;;21.17;;
6723;SDS011;3399;52.530;13.304;2022-11-25T15:27:20;30.63;;;20.80;;
6723;SDS011;3399;52.530;13.304;2022-11-25T15:29:51;29.40;;;19.40;;
6723;SDS011;3399;52.530;13.304;2022-11-25T15:32:28;35.80;;;22.43;;
6723;SDS011;3399;52.530;13.304;2022-11-25T15:34:56;38.47;;;20.07;;
6723;SDS011;3399;52.530;13.304;2022-11-25T15:37:25;36.63;;;20.80;;
6723;SDS011;3399;52.530;13.304;2022-11-25T15:42:54;47.07;;;22.67;;
6723;SDS011;3399;52.530;13.304;2022-11-25T15:45:21;39.47;;;22.20;;
6723;SDS011;3399;52.530;13.304;2022-11-25T15:47:46;31.57;;;21.13;;
6723;SDS011;3399;52.530;13.304;2022-11-25T15:50:22;35.67;;;20.47;;
6723;SDS011;3399;52.530;13.304;2022-11-25T15:52:50;45.20;;;25.73;;
6723;SDS011;3399;52.530;13.304;2022-11-25T15:55:33;41.43;;;22.83;;
6723;SDS011;3399;52.530;13.304;2022-11-25T15:58:05;40.20;;;25.83;;
6723;SDS011;3399;52.530;13.304;2022-11-25T16:00:40;41.43;;;26.93;;
6723;SDS011;3399;52.530;13.304;2022-11-25T16:03:17;42.80;;;24.90;;
6723;SDS011;3399;52.530;13.304;2022-11-25T16:05:54;39.57;;;24.07;;
6723;SDS011;3399;52.530;13.304;2022-11-25T16:08:27;39.13;;;23.90;;
6723;SDS011;3399;52.530;13.304;2022-11-25T16:11:15;33.83;;;22.07;;
6723;SDS011;3399;52.530;13.304;2022-11-25T16:13:43;36.10;;;23.77;;
6723;SDS011;3399;52.530;13.304;2022-11-25T16:16:14;37.93;;;23.20;;
6723;SDS011;3399;52.530;13.304;2022-11-25T16:18:46;35.70;;;22.57;;